Time;durP1;ratioP1;P1;durP2;ratioP2;P2;SDS_P1;SDS_P2;PMS_P1;PMS_P2;Temp;Humidity;BMP_temperature;BMP_pressure;BME280_temperature;BME280_humidity;BME280_pressure;Samples;Min_cycle;Max_cycle;Signal;HPM_P1;HPM_P2
2022/06/06 00:03:36;;;;;;;5.80;5.30;;;22.20;64.20;;;;;;5834176;22;10319853;-48
2022/06/06 00:09:42;;;;;;;6.90;6.20;;;22.20;64.20;;;;;;5109518;27;20542;-47
2022/06/06 00:16:29;;;;;;;7.13;6.20;;;22.20;64.10;;;;;;5088308;27;20624;-47
2022/06/06 00:19:29;;;;;;;6.83;6.13;;;22.10;64.00;;;;;;5082373;27;20900;-48
2022/06/06 00:22:20;;;;;;;8.93;5.80;;;22.10;63.90;;;;;;5024826;28;20571;-49
2022/06/06 00:25:17;;;;;;;6.63;6.03;;;22.10;63.90;;;;;;5059605;28;20519;-48
2022/06/06 00:28:09;;;;;;;5.90;5.40;;;22.10;63.80;;;;;;5057505;27;20979;-49
2022/06/06 00:37:12;;;;;;;6.20;5.60;;;22.10;63.90;;;;;;5039455;27;20546;-48
2022/06/06 00:39:54;;;;;;;5.93;5.33;;;22.10;63.90;;;;;;5142049;27;20519;-48
2022/06/06 00:42:45;;;;;;;7.47;6.63;;;22.10;63.90;;;;;;5070951;27;20619;-49
2022/06/06 00:45:40;;;;;;;6.93;6.27;;;22.10;63.80;;;;;;5041157;27;1211029;-47
2022/06/06 00:48:44;;;;;;;6.03;5.53;;;22.10;63.80;;;;;;5063432;27;20531;-47
2022/06/06 00:51:46;;;;;;;5.70;5.20;;;22.10;63.80;;;;;;5075810;27;20958;-48
2022/06/06 00:54:27;;;;;;;6.00;4.90;;;22.10;63.90;;;;;;5098660;27;20630;-48
2022/06/06 00:57:19;;;;;;;6.70;6.10;;;22.10;63.90;;;;;;5110091;27;21003;-49
2022/06/06 01:03:46;;;;;;;5.83;5.33;;;22.10;63.80;;;;;;5102265;27;20601;-48
2022/06/06 01:06:41;;;;;;;5.83;5.33;;;22.00;63.80;;;;;;5074185;27;20600;-47
2022/06/06 01:09:29;;;;;;;6.27;5.67;;;22.00;63.80;;;;;;5103942;27;20530;-50
2022/06/06 01:12:14;;;;;;;6.10;5.60;;;22.00;63.90;;;;;;5069817;27;20579;-48
2022/06/06 01:15:17;;;;;;;6.73;6.13;;;22.00;63.60;;;;;;5118705;27;20557;-47
2022/06/06 01:18:29;;;;;;;5.18;4.78;;;22.00;63.60;;;;;;5099683;27;20885;-49
2022/06/06 01:22:01;;;;;;;5.27;4.87;;;22.00;63.60;;;;;;5052013;28;20588;-48
2022/06/06 01:25:11;;;;;;;6.13;5.63;;;22.00;63.50;;;;;;5100001;27;20981;-48
2022/06/06 01:28:01;;;;;;;5.57;5.07;;;22.00;63.50;;;;;;5052481;27;20567;-48
2022/06/06 01:31:07;;;;;;;5.63;5.03;;;22.00;63.50;;;;;;5099651;27;20554;-48
2022/06/06 01:33:55;;;;;;;4.77;4.27;;;22.00;63.50;;;;;;5101421;27;20525;-47
2022/06/06 01:36:41;;;;;;;5.17;4.77;;;22.00;63.40;;;;;;5077607;27;20592;-47
2022/06/06 01:39:36;;;;;;;6.83;5.60;;;22.00;63.50;;;;;;5121092;27;20598;-48
2022/06/06 01:42:28;;;;;;;5.53;5.03;;;22.00;63.40;;;;;;5096131;27;20614;-49
2022/06/06 01:45:12;;;;;;;5.97;5.47;;;22.00;63.40;;;;;;5103475;27;20836;-48
2022/06/06 01:47:54;;;;;;;4.73;4.37;;;22.00;63.40;;;;;;5064753;27;20611;-47
2022/06/06 01:50:37;;;;;;;5.40;4.90;;;22.00;63.40;;;;;;5078756;28;20942;-49
2022/06/06 01:53:23;;;;;;;5.50;5.03;;;22.00;63.40;;;;;;5081693;27;20504;-47
2022/06/06 01:56:16;;;;;;;5.50;5.07;;;21.90;63.30;;;;;;5117303;27;20525;-49
2022/06/06 01:58:57;;;;;;;5.87;5.30;;;21.90;63.30;;;;;;5121191;27;20539;-47
2022/06/06 02:01:40;;;;;;;4.83;4.43;;;21.90;63.10;;;;;;5077560;27;20600;-48
2022/06/06 02:04:28;;;;;;;4.57;4.17;;;21.90;63.30;;;;;;5086681;28;20552;-48
2022/06/06 02:07:14;;;;;;;5.03;4.40;;;21.90;63.20;;;;;;5067996;27;20608;-47
2022/06/06 02:10:10;;;;;;;4.97;4.57;;;21.90;63.30;;;;;;5088082;28;20570;-50
2022/06/06 02:12:54;;;;;;;4.30;4.00;;;21.90;63.30;;;;;;5077271;27;20917;-49
2022/06/06 02:15:44;;;;;;;3.60;3.33;;;21.90;63.30;;;;;;5127609;27;20914;-49
2022/06/06 02:18:49;;;;;;;4.47;4.07;;;21.90;63.30;;;;;;5087745;27;20539;-48
2022/06/06 02:21:36;;;;;;;4.47;4.17;;;21.90;63.20;;;;;;5080466;28;20596;-47
2022/06/06 02:24:20;;;;;;;4.70;4.30;;;21.90;63.30;;;;;;5117020;27;20599;-46
2022/06/06 02:27:04;;;;;;;4.90;4.47;;;21.80;63.20;;;;;;5077255;27;20602;-48
2022/06/06 02:29:44;;;;;;;4.23;3.83;;;21.90;63.40;;;;;;5126848;27;20531;-46
2022/06/06 02:32:24;;;;;;;4.60;4.20;;;21.90;63.10;;;;;;5073645;28;20546;-48
2022/06/06 02:35:18;;;;;;;5.50;4.70;;;21.90;63.10;;;;;;5106304;27;20567;-47
2022/06/06 02:37:58;;;;;;;4.43;4.03;;;21.90;63.10;;;;;;5073470;27;20555;-47
2022/06/06 02:40:50;;;;;;;4.27;3.97;;;21.80;63.20;;;;;;5087078;28;20581;-48
2022/06/06 02:43:37;;;;;;;4.43;4.03;;;21.80;63.10;;;;;;5081309;28;20956;-48
2022/06/06 02:46:18;;;;;;;5.20;4.80;;;21.80;63.20;;;;;;5095687;27;20542;-47
2022/06/06 02:49:02;;;;;;;3.83;3.53;;;21.80;63.10;;;;;;5105547;27;20538;-47
2022/06/06 02:52:11;;;;;;;4.03;3.73;;;21.80;63.00;;;;;;5066775;27;20580;-48
2022/06/06 02:58:04;;;;;;;5.03;4.63;;;21.80;63.10;;;;;;5045996;27;20554;-46
2022/06/06 03:01:10;;;;;;;4.63;4.03;;;21.70;62.90;;;;;;5086893;27;20585;-48
2022/06/06 03:04:30;;;;;;;3.80;3.50;;;21.80;64.30;;;;;;5081661;28;20532;-48
2022/06/06 03:07:29;;;;;;;4.30;4.00;;;21.80;62.90;;;;;;5059670;27;20961;-50
2022/06/06 03:10:29;;;;;;;4.57;4.03;;;21.70;62.80;;;;;;5102662;27;20577;-49
2022/06/06 03:13:27;;;;;;;3.90;3.60;;;21.70;62.80;;;;;;5053001;27;21127;-48
2022/06/06 03:23:22;;;;;;;5.50;3.70;;;21.70;62.70;;;;;;5042695;27;20971;-48
2022/06/06 03:26:12;;;;;;;4.10;3.73;;;21.70;62.80;;;;;;5099935;27;20576;-50
2022/06/06 03:29:09;;;;;;;4.07;3.77;;;21.70;62.70;;;;;;5039776;27;3061512;-48
2022/06/06 03:32:14;;;;;;;5.30;4.80;;;21.70;62.70;;;;;;5052102;28;20535;-48
2022/06/06 03:35:21;;;;;;;4.53;4.13;;;21.70;62.70;;;;;;5061304;28;20501;-48
2022/06/06 03:38:07;;;;;;;4.73;4.00;;;21.70;62.70;;;;;;5042845;27;20965;-49
2022/06/06 03:41:11;;;;;;;3.70;3.40;;;21.70;62.50;;;;;;5082522;28;20552;-47
2022/06/06 03:44:20;;;;;;;4.30;3.90;;;21.70;62.20;;;;;;5114566;27;20572;-49
2022/06/06 03:47:34;;;;;;;3.97;3.53;;;21.70;62.50;;;;;;5064683;27;20620;-48
2022/06/06 03:54:14;;;;;;;4.73;4.33;;;21.70;62.60;;;;;;5102942;27;20567;-48
2022/06/06 03:57:10;;;;;;;4.17;3.83;;;21.60;62.40;;;;;;5091867;27;20675;-49
2022/06/06 03:59:56;;;;;;;4.40;4.10;;;21.60;62.50;;;;;;5116947;27;20923;-49
2022/06/06 04:02:57;;;;;;;3.77;3.47;;;21.60;62.50;;;;;;5084377;27;20955;-48
2022/06/06 04:05:39;;;;;;;3.97;3.67;;;21.60;62.50;;;;;;5080676;27;20578;-48
2022/06/06 04:08:35;;;;;;;4.30;4.00;;;21.60;62.40;;;;;;5105787;27;20951;-49
2022/06/06 04:11:40;;;;;;;4.60;4.23;;;21.60;62.60;;;;;;5117818;27;20538;-49
2022/06/06 04:14:39;;;;;;;4.37;3.97;;;21.60;62.50;;;;;;5099231;27;20534;-48
2022/06/06 04:17:32;;;;;;;3.87;3.57;;;21.60;62.40;;;;;;5069564;27;20599;-49
2022/06/06 04:20:26;;;;;;;3.70;3.40;;;21.60;62.50;;;;;;5074549;28;20525;-49
2022/06/06 04:23:38;;;;;;;3.63;3.33;;;21.60;62.60;;;;;;5039581;27;20565;-48
2022/06/06 04:33:25;;;;;;;4.50;4.07;;;21.60;62.50;;;;;;5066399;27;20558;-49
2022/06/06 04:39:41;;;;;;;3.63;3.33;;;21.60;62.60;;;;;;5095554;27;20515;-49
2022/06/06 04:42:41;;;;;;;4.83;4.33;;;21.50;62.40;;;;;;5074053;27;20897;-49
2022/06/06 04:45:41;;;;;;;3.77;3.47;;;21.50;62.30;;;;;;5083685;27;20591;-50
2022/06/06 04:48:37;;;;;;;3.80;3.50;;;21.50;62.40;;;;;;5070120;28;20585;-47
2022/06/06 04:51:23;;;;;;;3.53;3.23;;;21.50;62.40;;;;;;5042058;27;1224273;-49
2022/06/06 04:54:10;;;;;;;3.63;3.40;;;21.50;62.50;;;;;;5121643;27;20521;-49
2022/06/06 04:57:03;;;;;;;3.77;3.47;;;21.50;62.40;;;;;;5082110;27;20599;-48
2022/06/06 04:59:55;;;;;;;4.00;3.60;;;21.50;62.30;;;;;;5121044;27;20583;-49
2022/06/06 05:02:38;;;;;;;4.13;3.73;;;21.50;62.40;;;;;;5078073;27;20541;-48
2022/06/06 05:05:18;;;;;;;2.80;2.60;;;21.50;62.50;;;;;;5096985;28;20514;-49
2022/06/06 05:08:21;;;;;;;3.50;3.30;;;21.50;62.60;;;;;;5061449;27;20605;-73
2022/06/06 05:11:27;;;;;;;4.37;3.60;;;21.50;62.40;;;;;;5079273;27;21062;-47
2022/06/06 05:14:28;;;;;;;3.73;3.43;;;21.50;62.60;;;;;;5091046;27;20781;-50
2022/06/06 05:17:36;;;;;;;3.90;3.60;;;21.50;62.40;;;;;;5089246;27;20553;-48
2022/06/06 05:20:35;;;;;;;4.20;3.80;;;21.50;62.20;;;;;;5081066;28;20524;-47
2022/06/06 05:23:53;;;;;;;3.77;2.87;;;21.50;62.20;;;;;;5050082;27;20644;-51
2022/06/06 05:26:49;;;;;;;3.63;3.23;;;21.50;62.20;;;;;;5070007;28;20542;-50
2022/06/06 05:29:55;;;;;;;2.97;2.77;;;21.50;62.10;;;;;;5135054;27;1211900;-47
2022/06/06 05:32:55;;;;;;;3.60;3.28;;;21.50;61.80;;;;;;5082361;27;1239225;-49
2022/06/06 05:35:52;;;;;;;3.07;2.87;;;21.40;61.90;;;;;;5081661;27;21113;-48
2022/06/06 05:38:51;;;;;;;3.77;3.47;;;21.50;61.70;;;;;;5089435;27;20512;-72
2022/06/06 05:41:45;;;;;;;3.43;3.13;;;21.50;61.50;;;;;;5076105;28;20947;-48
2022/06/06 05:44:39;;;;;;;2.63;2.43;;;21.50;61.60;;;;;;5076238;27;20524;-48
2022/06/06 05:47:30;;;;;;;3.70;3.40;;;21.40;61.10;;;;;;5069112;27;20586;-47
2022/06/06 05:50:30;;;;;;;3.60;3.30;;;21.50;61.20;;;;;;5123859;27;20507;-49
2022/06/06 05:53:30;;;;;;;3.07;2.77;;;21.50;61.10;;;;;;5061348;27;20549;-47
2022/06/06 05:56:25;;;;;;;2.57;2.37;;;21.40;60.40;;;;;;5078227;28;20577;-47
2022/06/06 05:59:21;;;;;;;3.10;2.90;;;21.50;61.10;;;;;;5112178;27;20538;-49
2022/06/06 06:02:25;;;;;;;3.23;2.93;;;21.50;60.70;;;;;;5112259;27;20595;-49
2022/06/06 06:05:14;;;;;;;3.30;3.10;;;21.40;60.80;;;;;;5120566;27;20813;-49
2022/06/06 06:08:09;;;;;;;3.00;2.80;;;21.50;60.70;;;;;;5063432;27;20553;-48
2022/06/06 06:10:57;;;;;;;3.00;2.80;;;21.50;60.10;;;;;;5080871;28;20524;-49
2022/06/06 06:13:50;;;;;;;3.40;3.10;;;21.50;60.50;;;;;;5115472;27;20587;-48
2022/06/06 06:16:35;;;;;;;2.47;2.20;;;21.50;60.60;;;;;;5074790;27;20983;-49
2022/06/06 06:19:23;;;;;;;3.37;3.07;;;21.50;60.40;;;;;;5080086;28;20555;-49
2022/06/06 06:22:09;;;;;;;3.90;3.60;;;21.50;60.00;;;;;;5109965;27;20596;-50
2022/06/06 06:24:56;;;;;;;2.80;2.60;;;21.50;60.00;;;;;;5080357;28;21081;-52
2022/06/06 06:27:39;;;;;;;2.60;2.40;;;21.40;59.70;;;;;;5067522;27;21167;-49
2022/06/06 06:30:20;;;;;;;3.63;3.33;;;21.50;59.90;;;;;;5119712;27;20994;-51
2022/06/06 06:33:19;;;;;;;3.60;3.30;;;21.40;59.70;;;;;;5054657;27;20958;-48
2022/06/06 06:36:08;;;;;;;2.80;2.60;;;21.40;59.80;;;;;;5118028;27;20570;-50
2022/06/06 06:39:07;;;;;;;2.77;2.50;;;21.40;60.00;;;;;;5064044;28;20570;-49
2022/06/06 06:42:04;;;;;;;2.50;2.30;;;21.40;60.10;;;;;;5077192;27;20693;-47
2022/06/06 06:44:55;;;;;;;2.70;2.50;;;21.40;59.70;;;;;;5140141;27;20592;-49
2022/06/06 06:47:37;;;;;;;3.33;3.03;;;21.40;59.80;;;;;;5104164;27;21006;-49
2022/06/06 06:50:24;;;;;;;3.10;2.70;;;21.40;59.40;;;;;;5102505;27;20728;-47
2022/06/06 06:53:20;;;;;;;2.90;2.13;;;21.40;59.50;;;;;;5059362;27;20568;-49
2022/06/06 06:56:11;;;;;;;2.27;2.17;;;21.40;59.70;;;;;;5077284;28;20523;-47
2022/06/06 06:58:55;;;;;;;2.80;2.60;;;21.40;59.10;;;;;;5073117;27;20549;-48
2022/06/06 07:08:32;;;;;;;3.00;2.80;;;21.40;59.30;;;;;;5115750;27;20534;-47
2022/06/06 07:11:25;;;;;;;3.20;2.90;;;21.50;59.50;;;;;;5077231;27;20515;-54
2022/06/06 07:14:16;;;;;;;2.77;2.57;;;21.50;59.70;;;;;;5070062;28;20587;-48
2022/06/06 07:17:00;;;;;;;2.90;2.70;;;21.50;59.80;;;;;;5070878;27;20589;-48
2022/06/06 07:19:49;;;;;;;2.70;2.50;;;21.50;60.00;;;;;;5122011;27;20764;-50
2022/06/06 07:22:59;;;;;;;3.27;2.33;;;21.50;60.20;;;;;;5094292;27;20654;-47
2022/06/06 07:25:38;;;;;;;2.50;2.30;;;21.50;60.20;;;;;;5142040;27;20612;-49
2022/06/06 07:28:23;;;;;;;3.10;2.90;;;21.50;60.30;;;;;;5092383;27;20613;-49
2022/06/06 07:31:17;;;;;;;2.90;2.70;;;21.50;60.30;;;;;;5119456;27;20879;-49
2022/06/06 07:34:20;;;;;;;2.30;2.20;;;21.50;60.40;;;;;;5101119;27;20609;-45
2022/06/06 07:37:17;;;;;;;3.00;2.80;;;21.40;60.40;;;;;;5085052;27;21093;-49
2022/06/06 07:40:07;;;;;;;2.20;2.00;;;21.50;60.30;;;;;;5121400;27;20611;-49
2022/06/06 07:43:13;;;;;;;2.43;2.33;;;21.50;60.30;;;;;;5063757;27;20537;-48
2022/06/06 07:46:05;;;;;;;2.40;2.20;;;21.50;60.30;;;;;;5100316;27;20560;-49
2022/06/06 07:49:03;;;;;;;2.23;2.07;;;21.50;60.30;;;;;;5136436;27;21061;-47
2022/06/06 07:51:52;;;;;;;2.77;2.40;;;21.50;60.20;;;;;;5116430;27;1358959;-51
2022/06/06 07:54:47;;;;;;;2.47;2.27;;;21.50;60.30;;;;;;5083763;27;20523;-47
2022/06/06 07:57:38;;;;;;;2.77;2.57;;;21.50;60.30;;;;;;5082106;27;20632;-47
2022/06/06 08:00:25;;;;;;;2.23;2.03;;;21.50;60.30;;;;;;5123482;27;20311;-48
2022/06/06 08:03:18;;;;;;;2.17;2.07;;;21.50;60.30;;;;;;5104665;27;20563;-50
2022/06/06 08:06:31;;;;;;;2.50;1.90;;;21.50;60.20;;;;;;5098017;27;20550;-47
2022/06/06 08:09:56;;;;;;;2.10;2.00;;;21.50;60.30;;;;;;5080718;27;20605;-49
2022/06/06 08:13:11;;;;;;;2.50;2.30;;;21.50;60.20;;;;;;5086960;27;20965;-48
2022/06/06 08:16:11;;;;;;;2.53;2.33;;;21.50;60.10;;;;;;5118283;27;20586;-48
2022/06/06 08:19:19;;;;;;;2.57;2.37;;;21.50;60.10;;;;;;5072285;27;20622;-47
2022/06/06 08:22:02;;;;;;;2.30;2.10;;;21.50;59.70;;;;;;5063630;27;20579;-51
2022/06/06 08:24:47;;;;;;;3.73;2.63;;;21.50;59.90;;;;;;5081538;28;20893;-48
2022/06/06 08:27:38;;;;;;;2.40;2.20;;;21.50;59.80;;;;;;5080295;27;20623;-49
2022/06/06 08:30:22;;;;;;;2.47;2.27;;;21.40;59.80;;;;;;5100960;27;20559;-46
2022/06/06 08:33:04;;;;;;;2.20;2.00;;;21.40;59.80;;;;;;5083820;27;20620;-48
2022/06/06 08:35:56;;;;;;;2.43;2.23;;;21.40;59.70;;;;;;5077603;27;20520;-50
2022/06/06 08:38:51;;;;;;;2.37;2.17;;;21.40;59.60;;;;;;5135509;27;20545;-49
2022/06/06 08:41:58;;;;;;;2.47;2.27;;;21.50;59.70;;;;;;5083839;27;21058;-72
2022/06/06 08:44:54;;;;;;;2.73;2.53;;;21.50;59.70;;;;;;5109257;27;20564;-50
2022/06/06 08:47:56;;;;;;;2.40;2.23;;;21.40;59.80;;;;;;5054279;27;21089;-49
2022/06/06 08:51:14;;;;;;;2.27;2.10;;;21.40;59.40;;;;;;5122889;27;20509;-48
2022/06/06 08:54:32;;;;;;;2.13;2.00;;;21.40;59.50;;;;;;5143658;27;20520;-49
2022/06/06 08:57:27;;;;;;;3.20;2.00;;;21.50;59.60;;;;;;5071340;28;20907;-49
2022/06/06 09:00:23;;;;;;;2.33;2.13;;;21.40;60.70;;;;;;5141574;27;20319;-50
2022/06/06 09:03:30;;;;;;;2.10;2.00;;;21.40;59.50;;;;;;5067092;27;20606;-49
2022/06/06 09:06:58;;;;;;;2.13;1.93;;;21.50;59.70;;;;;;5115810;27;20319;-47
2022/06/06 09:10:08;;;;;;;2.70;2.10;;;21.50;59.70;;;;;;5074923;28;21133;-49
2022/06/06 09:13:24;;;;;;;5.50;1.50;;;21.40;59.70;;;;;;5087819;27;20873;-47
2022/06/06 09:16:42;;;;;;;3.00;1.50;;;21.40;59.90;;;;;;5099007;27;20565;-49
2022/06/06 09:20:03;;;;;;;1.70;1.60;;;21.40;59.50;;;;;;5075681;27;20962;-52
2022/06/06 09:23:14;;;;;;;3.57;1.57;;;21.40;59.30;;;;;;5050237;28;20664;-49
2022/06/06 09:26:04;;;;;;;1.80;1.70;;;21.40;58.90;;;;;;5122832;27;21090;-48
2022/06/06 09:29:37;;;;;;;2.00;1.37;;;21.40;58.90;;;;;;5043445;28;20590;-49
2022/06/06 09:32:55;;;;;;;1.47;1.33;;;21.40;59.00;;;;;;5075225;27;20580;-48
2022/06/06 09:35:53;;;;;;;2.00;1.80;;;21.40;58.80;;;;;;5118447;27;20557;-50
2022/06/06 09:38:57;;;;;;;3.33;1.77;;;21.40;58.60;;;;;;5112682;27;1272753;-48
2022/06/06 09:41:44;;;;;;;1.67;1.47;;;21.30;58.50;;;;;;5075525;27;20589;-51
2022/06/06 09:44:52;;;;;;;1.73;1.63;;;21.30;58.30;;;;;;5077595;28;21150;-47
2022/06/06 09:48:15;;;;;;;1.60;1.50;;;21.30;58.40;;;;;;5034743;27;20537;-48
2022/06/06 09:51:41;;;;;;;1.33;1.23;;;21.30;58.80;;;;;;5097524;27;20527;-46
2022/06/06 10:16:20;;;;;;;2.40;1.30;;;21.30;58.80;;;;;;5105244;27;20534;-49
2022/06/06 10:19:25;;;;;;;1.70;1.60;;;21.20;58.30;;;;;;5051919;28;20579;-49
2022/06/06 10:22:47;;;;;;;2.90;1.50;;;21.20;58.40;;;;;;5092226;27;20667;-46
2022/06/06 10:25:53;;;;;;;2.40;1.20;;;21.20;58.20;;;;;;5082151;27;20539;-49
2022/06/06 10:29:06;;;;;;;1.23;1.13;;;21.20;58.20;;;;;;5082057;27;20597;-48
2022/06/06 10:32:12;;;;;;;1.10;1.00;;;21.20;57.80;;;;;;5089631;27;20561;-48
2022/06/06 10:35:09;;;;;;;1.67;1.57;;;21.20;57.80;;;;;;5102937;27;20618;-47
2022/06/06 10:42:27;;;;;;;1.40;1.27;;;21.20;58.00;;;;;;4966191;28;20466;-64
2022/06/06 10:45:25;;;;;;;1.77;1.67;;;21.20;57.70;;;;;;5157208;27;21136;-47
2022/06/06 10:48:22;;;;;;;1.40;1.30;;;21.30;57.60;;;;;;5049238;27;20605;-47
2022/06/06 10:51:41;;;;;;;1.87;1.23;;;21.30;57.70;;;;;;5079461;27;20593;-46
2022/06/06 10:54:59;;;;;;;1.40;1.30;;;21.30;57.50;;;;;;5107570;27;20572;-50
2022/06/06 10:58:20;;;;;;;1.03;0.90;;;21.30;57.80;;;;;;5044800;27;20579;-66
2022/06/06 11:01:43;;;;;;;1.40;1.30;;;21.30;57.90;;;;;;5060338;27;20570;-46
2022/06/06 11:05:18;;;;;;;1.30;1.20;;;21.30;58.50;;;;;;5099766;27;20568;-48
2022/06/06 11:08:42;;;;;;;3.20;1.20;;;21.30;59.00;;;;;;5034008;28;20596;-48
2022/06/06 11:11:53;;;;;;;1.77;1.23;;;21.30;57.80;;;;;;5112642;27;20568;-47
2022/06/06 11:14:47;;;;;;;1.47;1.27;;;21.30;58.20;;;;;;5115316;27;21063;-48
2022/06/06 11:18:00;;;;;;;1.10;1.00;;;21.30;57.70;;;;;;5079758;27;20552;-50
2022/06/06 11:21:49;;;;;;;1.50;1.20;;;21.30;57.80;;;;;;5046223;28;20542;-48
2022/06/06 11:24:56;;;;;;;1.80;1.37;;;21.40;57.70;;;;;;5110535;27;20478;-48
2022/06/06 11:28:20;;;;;;;1.37;1.13;;;21.40;57.90;;;;;;5098407;27;21143;-48
2022/06/06 11:31:27;;;;;;;1.30;1.10;;;21.40;57.70;;;;;;5113112;27;20520;-48
2022/06/06 11:34:46;;;;;;;1.33;1.23;;;21.30;57.70;;;;;;5122015;27;1245091;-47
2022/06/06 11:38:06;;;;;;;1.30;1.20;;;21.40;57.60;;;;;;5027134;27;3375321;-49
2022/06/06 11:55:51;;;;;;;1.20;1.10;;;21.30;56.80;;;;;;5121586;27;20530;-48
2022/06/06 11:59:25;;;;;;;1.40;1.30;;;21.40;57.20;;;;;;5108402;27;20575;-49
2022/06/06 12:02:46;;;;;;;1.10;0.97;;;21.40;57.10;;;;;;5092753;27;20299;-45
2022/06/06 12:06:17;;;;;;;1.40;1.30;;;21.40;57.00;;;;;;5122063;27;1693001;-48
2022/06/06 12:09:12;;;;;;;1.40;1.20;;;21.50;56.30;;;;;;5127621;27;20662;-50
2022/06/06 12:12:33;;;;;;;1.97;1.07;;;21.50;55.90;;;;;;5116301;27;20626;-48
2022/06/06 12:16:07;;;;;;;1.73;1.40;;;21.50;55.80;;;;;;5132914;27;20515;-47
2022/06/06 12:19:38;;;;;;;3.33;1.27;;;21.60;56.30;;;;;;5108186;27;20545;-48
2022/06/06 12:22:55;;;;;;;2.97;1.20;;;21.60;55.30;;;;;;5103371;27;20530;-47
2022/06/06 12:26:13;;;;;;;1.17;1.07;;;21.60;55.10;;;;;;5102150;27;20549;-49
2022/06/06 12:29:36;;;;;;;2.73;1.17;;;21.60;54.10;;;;;;5168799;27;20558;-47
2022/06/06 12:32:35;;;;;;;1.33;1.00;;;21.60;54.50;;;;;;5113309;27;20652;-48
2022/06/06 12:35:34;;;;;;;1.33;0.90;;;21.60;54.30;;;;;;5133626;27;20489;-46
2022/06/06 12:38:34;;;;;;;1.87;0.90;;;21.60;53.20;;;;;;5058149;27;20974;-46
2022/06/06 12:41:40;;;;;;;2.43;1.20;;;21.70;52.10;;;;;;5081713;28;20564;-47
2022/06/06 12:44:51;;;;;;;1.30;1.00;;;21.70;52.70;;;;;;5128193;27;20513;-49
2022/06/06 12:47:56;;;;;;;2.60;1.30;;;21.70;51.90;;;;;;5052426;27;20548;-48
2022/06/06 12:50:47;;;;;;;1.30;1.20;;;21.70;51.40;;;;;;5077343;27;21089;-47
2022/06/06 12:54:08;;;;;;;1.10;1.00;;;21.70;52.30;;;;;;5063037;27;20686;-47
2022/06/06 12:56:55;;;;;;;1.60;1.40;;;21.70;50.80;;;;;;5043026;27;20603;-47
2022/06/06 12:59:53;;;;;;;1.63;0.90;;;21.60;51.50;;;;;;5080963;28;20593;-45
2022/06/06 13:02:53;;;;;;;2.97;1.50;;;21.60;51.80;;;;;;5065061;27;20585;-48
2022/06/06 13:05:48;;;;;;;1.80;0.93;;;21.60;52.10;;;;;;5124844;27;20534;-47
2022/06/06 13:08:46;;;;;;;1.20;1.10;;;21.60;53.60;;;;;;5127977;27;20637;-49
2022/06/06 13:11:45;;;;;;;0.93;0.90;;;21.60;52.80;;;;;;5122786;27;20521;-49
2022/06/06 13:14:49;;;;;;;1.30;1.20;;;21.50;53.00;;;;;;5099421;27;20608;-49
2022/06/06 13:17:41;;;;;;;1.87;1.20;;;21.50;53.30;;;;;;5062852;27;20583;-47
2022/06/06 13:20:38;;;;;;;1.67;0.90;;;21.50;53.60;;;;;;5096177;27;20537;-47
2022/06/06 13:23:38;;;;;;;3.23;1.27;;;21.50;53.40;;;;;;5061219;27;20579;-48
2022/06/06 13:26:42;;;;;;;1.60;1.20;;;21.60;53.20;;;;;;5094006;27;21043;-49
2022/06/06 13:29:31;;;;;;;1.13;1.00;;;21.50;53.60;;;;;;5113807;27;20625;-48
2022/06/06 13:32:41;;;;;;;1.10;1.00;;;21.50;53.30;;;;;;5062686;27;20614;-48
2022/06/06 13:35:42;;;;;;;2.37;1.43;;;21.50;53.10;;;;;;5076829;27;20611;-46
2022/06/06 13:38:36;;;;;;;0.90;0.87;;;21.60;53.50;;;;;;5111215;27;20559;-49
2022/06/06 13:41:46;;;;;;;1.17;0.73;;;21.60;53.40;;;;;;5115248;27;20565;-46
2022/06/06 13:45:00;;;;;;;1.57;0.80;;;21.50;53.00;;;;;;5063934;27;20567;-47
2022/06/06 13:48:10;;;;;;;5.90;1.00;;;21.60;52.10;;;;;;5123261;27;20303;-48
2022/06/06 13:51:00;;;;;;;2.50;1.08;;;21.70;51.00;;;;;;5077394;27;20887;-48
2022/06/06 13:54:01;;;;;;;1.40;1.30;;;21.70;48.50;;;;;;5112030;27;20533;-48
2022/06/06 13:57:00;;;;;;;1.20;1.07;;;21.60;48.70;;;;;;5111109;27;20527;-48
2022/06/06 14:00:06;;;;;;;1.63;1.00;;;21.60;49.70;;;;;;5106606;27;20544;-49
2022/06/06 14:03:07;;;;;;;3.00;1.10;;;21.60;50.90;;;;;;5100069;27;20688;-50
2022/06/06 14:06:18;;;;;;;3.00;1.20;;;21.60;51.10;;;;;;5086985;27;20551;-47
2022/06/06 14:09:01;;;;;;;2.30;0.90;;;21.60;51.40;;;;;;5106931;27;20563;-48
2022/06/06 14:12:06;;;;;;;1.07;0.70;;;21.60;51.90;;;;;;5126782;27;20531;-47
2022/06/06 14:14:49;;;;;;;1.50;1.07;;;21.60;52.10;;;;;;5107621;27;20514;-49
2022/06/06 14:17:36;;;;;;;3.37;1.10;;;21.60;52.10;;;;;;5060493;27;20903;-48
2022/06/06 14:20:25;;;;;;;1.30;1.20;;;21.60;52.10;;;;;;5078328;27;20816;-47
2022/06/06 14:23:25;;;;;;;1.30;1.20;;;21.60;52.50;;;;;;5127640;27;20562;-47
2022/06/06 14:26:07;;;;;;;1.13;1.00;;;21.60;52.70;;;;;;5067414;27;20624;-49
2022/06/06 14:29:04;;;;;;;1.90;0.93;;;21.60;52.90;;;;;;5072184;28;20533;-49
2022/06/06 14:31:54;;;;;;;0.87;0.80;;;21.60;52.70;;;;;;5121446;27;20616;-47
2022/06/06 14:34:42;;;;;;;1.00;0.60;;;21.60;52.70;;;;;;5126756;27;20903;-48
2022/06/06 14:37:29;;;;;;;1.63;1.03;;;21.60;52.50;;;;;;5104900;27;20616;-47
2022/06/06 14:40:15;;;;;;;2.00;0.70;;;21.60;52.60;;;;;;5074625;27;20612;-48
2022/06/06 14:42:57;;;;;;;1.10;0.97;;;21.60;52.40;;;;;;5062067;27;21191;-50
2022/06/06 14:45:41;;;;;;;1.20;1.10;;;21.60;52.50;;;;;;5107952;27;20527;-49
2022/06/06 14:48:34;;;;;;;1.30;1.00;;;21.60;52.60;;;;;;5063351;27;21018;-48
2022/06/06 14:51:17;;;;;;;2.10;1.00;;;21.60;52.70;;;;;;5125527;27;20592;-49
2022/06/06 14:54:03;;;;;;;1.67;0.80;;;21.60;52.30;;;;;;5086976;27;20527;-48
2022/06/06 14:56:50;;;;;;;1.30;0.70;;;21.60;52.90;;;;;;5101639;27;20597;-47
2022/06/06 14:59:41;;;;;;;1.60;0.70;;;21.60;52.70;;;;;;5113332;27;20524;-47
2022/06/06 15:02:23;;;;;;;1.10;1.00;;;21.60;52.70;;;;;;5102847;27;1218868;-47
2022/06/06 15:05:16;;;;;;;1.07;0.90;;;21.60;52.90;;;;;;5082999;27;20559;-46
2022/06/06 15:08:10;;;;;;;1.30;0.90;;;21.60;52.70;;;;;;5061096;28;20626;-50
2022/06/06 15:11:01;;;;;;;1.03;0.93;;;21.60;53.00;;;;;;5109321;27;20658;-48
2022/06/06 15:13:53;;;;;;;0.80;0.80;;;21.60;53.20;;;;;;5095351;27;21113;-48
2022/06/06 15:16:47;;;;;;;1.50;1.30;;;21.60;53.20;;;;;;5115262;27;20568;-49
2022/06/06 15:19:41;;;;;;;2.10;1.00;;;21.70;53.00;;;;;;5139305;27;20577;-46
2022/06/06 15:22:27;;;;;;;1.10;1.00;;;21.60;53.20;;;;;;5113912;27;21079;-49
2022/06/06 15:25:17;;;;;;;4.53;0.90;;;21.70;53.20;;;;;;5126862;27;20565;-47
2022/06/06 15:28:14;;;;;;;1.47;0.80;;;21.70;53.20;;;;;;5066527;27;20606;-49
2022/06/06 15:31:26;;;;;;;1.10;0.90;;;21.60;53.00;;;;;;5130898;27;20497;-47
2022/06/06 15:34:30;;;;;;;0.90;0.70;;;21.70;53.00;;;;;;5126813;27;20558;-49
2022/06/06 15:37:28;;;;;;;1.40;0.90;;;21.70;52.40;;;;;;5069856;27;20590;-48
2022/06/06 15:40:22;;;;;;;1.27;0.93;;;21.70;52.40;;;;;;5126380;27;20505;-49
2022/06/06 15:43:12;;;;;;;0.90;0.80;;;21.70;52.70;;;;;;5084052;27;20543;-47
2022/06/06 15:46:01;;;;;;;1.17;1.07;;;21.70;52.40;;;;;;5107577;27;20547;-48
2022/06/06 15:48:45;;;;;;;0.90;0.90;;;21.70;52.80;;;;;;5067238;28;20943;-48
2022/06/06 15:51:46;;;;;;;1.47;0.90;;;21.70;52.70;;;;;;5133769;27;1237955;-48
2022/06/06 15:54:46;;;;;;;2.07;1.00;;;21.70;52.70;;;;;;5109058;27;20559;-47
2022/06/06 15:57:38;;;;;;;1.00;0.80;;;21.70;53.00;;;;;;5103776;27;20568;-46
2022/06/06 16:00:28;;;;;;;1.17;0.80;;;21.70;52.90;;;;;;5096324;27;20560;-48
2022/06/06 16:03:29;;;;;;;2.10;0.90;;;21.70;52.70;;;;;;5083559;27;20533;-49
2022/06/06 16:06:16;;;;;;;1.60;1.50;;;21.70;52.90;;;;;;5124927;27;20572;-49
2022/06/06 16:09:06;;;;;;;2.70;1.30;;;21.70;53.00;;;;;;5086629;27;20558;-47
2022/06/06 16:12:01;;;;;;;1.37;1.03;;;21.70;52.90;;;;;;5047293;28;20569;-50
2022/06/06 16:14:57;;;;;;;1.00;0.90;;;21.70;52.80;;;;;;5128332;27;20652;-48
2022/06/06 16:17:44;;;;;;;1.37;1.27;;;21.70;52.90;;;;;;5087062;27;20570;-49
2022/06/06 16:20:29;;;;;;;1.00;0.90;;;21.70;52.80;;;;;;5189294;27;20549;-47
2022/06/06 16:23:16;;;;;;;2.10;0.70;;;21.70;52.40;;;;;;5101537;27;20944;-49
2022/06/06 16:26:04;;;;;;;0.70;0.70;;;21.70;52.70;;;;;;5092394;27;21099;-49
2022/06/06 16:28:49;;;;;;;1.23;1.00;;;21.70;52.90;;;;;;5106729;27;20929;-47
2022/06/06 16:31:32;;;;;;;0.80;0.60;;;21.70;53.00;;;;;;5083278;28;21085;-48
2022/06/06 16:34:30;;;;;;;1.30;1.00;;;21.70;53.00;;;;;;5123149;27;20630;-48
2022/06/06 16:37:16;;;;;;;0.90;0.80;;;21.80;53.00;;;;;;5066276;28;20573;-47
2022/06/06 16:40:02;;;;;;;1.00;0.90;;;21.70;52.90;;;;;;5080807;27;20595;-46
2022/06/06 16:49:01;;;;;;;1.23;0.90;;;21.80;53.10;;;;;;5063605;28;20653;-48
2022/06/06 16:51:56;;;;;;;1.10;1.00;;;21.70;53.20;;;;;;5082006;27;20541;-48
2022/06/06 16:54:50;;;;;;;1.20;1.10;;;21.80;53.20;;;;;;5084364;27;21058;-46
2022/06/06 16:57:43;;;;;;;1.10;0.97;;;21.80;53.20;;;;;;5129667;27;20575;-49
2022/06/06 17:00:27;;;;;;;1.40;1.00;;;21.80;53.20;;;;;;5112191;27;20533;-49